createdAt,value
2018-09-30T00:00:23.096Z,1.70
2018-09-30T00:02:51.409Z,1.70
2018-09-30T00:05:19.684Z,1.70
2018-09-30T00:07:48.029Z,1.80
2018-09-30T00:10:16.363Z,1.60
2018-09-30T00:12:44.698Z,1.33
2018-09-30T00:15:12.996Z,1.13
2018-09-30T00:17:41.380Z,1.67
2018-09-30T00:20:09.839Z,1.50
2018-09-30T00:22:38.646Z,1.50
2018-09-30T00:25:12.469Z,1.47
2018-09-30T00:27:40.898Z,1.30
2018-09-30T00:30:09.251Z,1.60
2018-09-30T00:32:37.591Z,1.47
2018-09-30T00:35:06.061Z,1.33
2018-09-30T00:37:34.376Z,1.73
2018-09-30T00:40:02.694Z,1.47
2018-09-30T00:42:31.483Z,1.70
2018-09-30T00:44:59.931Z,1.60
2018-09-30T00:47:28.325Z,1.10
2018-09-30T00:49:56.636Z,1.50
2018-09-30T00:52:25.419Z,1.23
2018-09-30T00:54:53.826Z,1.50
2018-09-30T00:57:22.205Z,1.40
2018-09-30T00:59:52.292Z,1.53
2018-09-30T01:02:20.741Z,1.20
2018-09-30T01:04:49.096Z,1.50
2018-09-30T01:07:17.436Z,1.27
2018-09-30T01:09:46.015Z,1.30
2018-09-30T01:12:14.338Z,1.60
2018-09-30T01:14:42.713Z,1.20
2018-09-30T01:17:11.135Z,1.40
2018-09-30T01:19:39.535Z,1.30
2018-09-30T01:22:07.927Z,1.40
2018-09-30T01:24:36.423Z,1.33
2018-09-30T01:27:04.819Z,1.17
2018-09-30T01:29:33.220Z,1.37
2018-09-30T01:32:01.679Z,1.50
2018-09-30T01:34:30.151Z,1.33
2018-09-30T01:36:58.739Z,1.67
2018-09-30T01:39:27.155Z,1.30
2018-09-30T01:41:55.478Z,1.00
2018-09-30T01:44:23.830Z,1.20
2018-09-30T01:46:52.280Z,1.10
2018-09-30T01:49:20.703Z,1.53
2018-09-30T01:51:59.140Z,1.10
2018-09-30T01:54:28.024Z,1.07
2018-09-30T01:56:56.460Z,1.33
2018-09-30T01:59:24.839Z,1.27
2018-09-30T02:01:53.410Z,1.20
2018-09-30T02:04:21.993Z,1.60
2018-09-30T02:06:50.427Z,1.20
2018-09-30T02:09:18.857Z,1.10
2018-09-30T02:11:47.206Z,1.03
2018-09-30T02:14:15.606Z,1.30
2018-09-30T02:16:43.936Z,1.47
2018-09-30T02:19:12.335Z,1.17
2018-09-30T02:21:40.760Z,1.30
2018-09-30T02:24:09.148Z,1.23
2018-09-30T02:26:37.524Z,1.13
2018-09-30T02:29:05.965Z,1.63
2018-09-30T02:31:34.353Z,1.43
2018-09-30T02:34:02.995Z,1.20
2018-09-30T02:36:31.569Z,1.27
2018-09-30T02:38:59.932Z,1.27
2018-09-30T02:41:28.349Z,1.20
2018-09-30T02:43:56.728Z,1.20
2018-09-30T02:46:25.163Z,1.10
2018-09-30T02:48:53.634Z,1.30
2018-09-30T02:51:22.075Z,1.50
2018-09-30T02:53:50.437Z,1.00
2018-09-30T02:56:19.006Z,1.60
2018-09-30T02:58:47.448Z,1.40
2018-09-30T03:01:15.941Z,1.40
2018-09-30T03:03:44.339Z,1.33
2018-09-30T03:06:17.932Z,1.40
2018-09-30T03:08:51.873Z,1.30
2018-09-30T03:11:20.237Z,1.37
2018-09-30T03:13:48.648Z,1.40
2018-09-30T03:16:17.031Z,1.23
2018-09-30T03:18:45.372Z,1.03
2018-09-30T03:21:13.715Z,1.30
2018-09-30T03:23:42.052Z,1.80
2018-09-30T03:26:10.453Z,1.20
2018-09-30T03:28:38.925Z,1.27
2018-09-30T03:31:07.287Z,1.20
2018-09-30T03:33:35.641Z,1.30
2018-09-30T03:36:04.012Z,1.53
2018-09-30T03:38:32.416Z,1.50
2018-09-30T03:41:01.105Z,1.37
2018-09-30T03:43:29.643Z,1.50
2018-09-30T03:45:57.995Z,1.30
2018-09-30T03:48:26.330Z,1.20
2018-09-30T03:50:54.703Z,1.23
2018-09-30T03:53:23.060Z,1.37
2018-09-30T03:55:51.488Z,1.63
2018-09-30T03:58:19.957Z,1.60
2018-09-30T04:00:48.345Z,1.67
2018-09-30T04:03:16.773Z,1.60
2018-09-30T04:05:45.155Z,1.33
2018-09-30T04:08:13.732Z,1.17
2018-09-30T04:10:42.059Z,1.57
2018-09-30T04:13:10.402Z,1.60
2018-09-30T04:15:38.781Z,1.37
2018-09-30T04:18:07.128Z,1.37
2018-09-30T04:20:35.464Z,1.30
2018-09-30T04:23:03.788Z,1.40
2018-09-30T04:25:32.292Z,1.37
2018-09-30T04:28:00.819Z,1.60
2018-09-30T04:30:29.339Z,1.73
2018-09-30T04:32:57.769Z,1.40
2018-09-30T04:35:26.633Z,1.53
2018-09-30T04:37:55.059Z,1.30
2018-09-30T04:40:23.560Z,1.27
2018-09-30T04:42:51.908Z,1.67
2018-09-30T04:45:20.227Z,1.90
2018-09-30T04:47:48.547Z,1.50
2018-09-30T04:50:17.021Z,1.67
2018-09-30T04:52:45.367Z,1.83
2018-09-30T04:55:13.786Z,1.10
2018-09-30T04:57:42.183Z,1.90
2018-09-30T05:00:10.739Z,1.57
2018-09-30T05:02:39.060Z,1.60
2018-09-30T05:05:07.653Z,1.80
2018-09-30T05:07:36.055Z,1.20
2018-09-30T05:10:04.439Z,1.63
2018-09-30T05:12:33.051Z,1.37
2018-09-30T05:15:01.367Z,1.57
2018-09-30T05:17:29.907Z,1.60
2018-09-30T05:19:58.441Z,1.80
2018-09-30T05:22:27.572Z,1.40
2018-09-30T05:24:56.100Z,1.50
2018-09-30T05:27:24.431Z,1.57
2018-09-30T05:29:52.830Z,1.30
2018-09-30T05:32:21.255Z,1.67
2018-09-30T05:34:49.648Z,1.73
2018-09-30T05:37:18.076Z,1.40
2018-09-30T05:39:46.287Z,1.50
2018-09-30T05:42:14.627Z,1.60
2018-09-30T05:44:43.107Z,1.53
2018-09-30T05:47:11.843Z,1.37
2018-09-30T05:49:40.267Z,1.40
2018-09-30T05:52:08.827Z,1.40
2018-09-30T05:54:37.141Z,1.73
2018-09-30T05:57:05.633Z,1.53
2018-09-30T05:59:34.196Z,1.50
2018-09-30T06:02:02.536Z,1.40
2018-09-30T06:04:30.863Z,1.40
2018-09-30T06:06:59.275Z,1.50
2018-09-30T06:09:27.735Z,1.60
2018-09-30T06:11:56.285Z,1.60
2018-09-30T06:14:24.614Z,1.50
2018-09-30T06:16:52.961Z,1.73
2018-09-30T06:19:21.346Z,1.97
2018-09-30T06:21:49.834Z,1.30
2018-09-30T06:24:18.197Z,1.50
2018-09-30T06:26:46.582Z,1.90
2018-09-30T06:29:14.905Z,1.63
2018-09-30T06:31:43.356Z,1.90
2018-09-30T06:34:11.703Z,1.60
2018-09-30T06:36:40.079Z,1.87
2018-09-30T06:39:09.852Z,2.23
2018-09-30T06:41:38.264Z,1.50
2018-09-30T06:44:07.207Z,1.57
2018-09-30T06:46:35.596Z,1.77
2018-09-30T06:49:04.183Z,1.87
2018-09-30T06:51:32.606Z,1.63
2018-09-30T06:54:01.011Z,1.80
2018-09-30T06:56:29.428Z,1.90
2018-09-30T06:58:57.888Z,2.23
2018-09-30T07:01:26.293Z,2.00
2018-09-30T07:03:54.798Z,1.90
2018-09-30T07:06:23.376Z,1.90
2018-09-30T07:08:51.982Z,2.20
2018-09-30T07:11:20.584Z,1.70
2018-09-30T07:13:48.929Z,1.97
2018-09-30T07:16:17.250Z,1.80
2018-09-30T07:18:45.826Z,1.80
2018-09-30T07:21:14.154Z,1.70
2018-09-30T07:23:42.488Z,2.30
2018-09-30T07:26:10.866Z,1.90
2018-09-30T07:28:39.391Z,2.10
2018-09-30T07:31:08.230Z,1.87
2018-09-30T07:33:36.604Z,2.07
2018-09-30T07:36:04.948Z,2.00
2018-09-30T07:38:33.640Z,2.07
2018-09-30T07:41:02.131Z,2.10
2018-09-30T07:43:30.814Z,1.67
2018-09-30T07:46:01.030Z,1.90
2018-09-30T07:48:29.591Z,2.40
2018-09-30T07:50:57.980Z,2.20
2018-09-30T07:53:26.364Z,1.67
2018-09-30T07:55:55.565Z,1.87
2018-09-30T07:58:23.948Z,1.90
2018-09-30T08:00:52.305Z,2.10
2018-09-30T08:03:20.795Z,2.30
2018-09-30T08:05:53.809Z,2.03
2018-09-30T08:08:22.212Z,2.13
2018-09-30T08:10:50.753Z,1.40
2018-09-30T08:13:19.186Z,2.40
2018-09-30T08:15:47.647Z,1.87
2018-09-30T08:18:16.056Z,1.70
2018-09-30T08:20:44.660Z,1.80
2018-09-30T08:23:12.968Z,1.70
2018-09-30T08:25:41.317Z,1.87
2018-09-30T08:28:09.699Z,2.00
2018-09-30T08:30:38.311Z,1.50
2018-09-30T08:33:06.724Z,1.70
2018-09-30T08:35:35.132Z,1.80
2018-09-30T08:38:08.774Z,1.65
2018-09-30T08:40:42.706Z,1.60
2018-09-30T08:43:11.048Z,1.80
2018-09-30T08:45:39.499Z,1.52
2018-09-30T08:48:07.864Z,1.80
2018-09-30T08:50:36.388Z,1.60
2018-09-30T08:53:04.779Z,1.80
2018-09-30T08:55:33.205Z,1.65
2018-09-30T08:58:01.545Z,1.50
2018-09-30T09:00:30.166Z,1.32
2018-09-30T09:02:58.852Z,1.65
2018-09-30T09:05:27.153Z,1.52
2018-09-30T09:07:55.513Z,1.57
2018-09-30T09:10:24.044Z,1.85
2018-09-30T09:12:52.589Z,1.72
2018-09-30T09:15:21.047Z,1.60
2018-09-30T09:17:49.426Z,1.37
2018-09-30T09:20:17.769Z,1.87
2018-09-30T09:22:46.176Z,1.62
2018-09-30T09:25:14.518Z,1.35
2018-09-30T09:27:42.874Z,1.80
2018-09-30T09:30:11.278Z,1.60
2018-09-30T09:32:39.844Z,1.75
2018-09-30T09:35:09.589Z,1.80
2018-09-30T09:37:38.683Z,1.60
2018-09-30T09:40:08.958Z,1.82
2018-09-30T09:42:37.297Z,1.77
2018-09-30T09:45:05.872Z,1.20
2018-09-30T09:47:34.470Z,1.30
2018-09-30T09:50:03.098Z,1.25
2018-09-30T09:52:31.577Z,1.67
2018-09-30T09:54:59.928Z,1.37
2018-09-30T09:57:28.320Z,1.50
2018-09-30T09:59:56.684Z,1.92
2018-09-30T10:02:25.066Z,1.70
2018-09-30T10:04:53.407Z,1.75
2018-09-30T10:07:21.744Z,1.67
2018-09-30T10:09:50.140Z,1.62
2018-09-30T10:12:18.649Z,1.57
2018-09-30T10:14:47.045Z,1.60
2018-09-30T10:17:15.453Z,1.60
2018-09-30T10:19:43.865Z,1.40
2018-09-30T10:22:12.304Z,1.40
2018-09-30T10:24:40.728Z,1.30
2018-09-30T10:27:09.220Z,1.70
2018-09-30T10:29:37.717Z,2.00
2018-09-30T10:32:06.262Z,1.62
2018-09-30T10:34:34.905Z,1.77
2018-09-30T10:37:03.396Z,1.70
2018-09-30T10:39:31.906Z,1.25
2018-09-30T10:42:00.288Z,0.98
2018-09-30T10:44:28.716Z,1.20
2018-09-30T10:46:57.129Z,1.40
2018-09-30T10:49:25.549Z,1.27
2018-09-30T10:51:53.951Z,1.75
2018-09-30T10:54:22.614Z,1.47
2018-09-30T10:56:51.049Z,1.87
2018-09-30T10:59:19.426Z,1.92
2018-09-30T11:01:47.868Z,1.52
2018-09-30T11:04:16.208Z,1.60
2018-09-30T11:06:44.597Z,1.70
2018-09-30T11:09:13.012Z,2.02
2018-09-30T11:11:41.684Z,2.08
2018-09-30T11:14:10.116Z,1.62
2018-09-30T11:16:38.496Z,2.15
2018-09-30T11:19:07.154Z,2.10
2018-09-30T11:21:35.564Z,1.87
2018-09-30T11:24:04.850Z,2.12
2018-09-30T11:26:33.323Z,2.37
2018-09-30T11:29:01.894Z,2.58
2018-09-30T11:31:30.432Z,2.25
2018-09-30T11:33:58.968Z,2.65
2018-09-30T11:36:27.311Z,2.30
2018-09-30T11:38:55.603Z,2.25
2018-09-30T11:41:24.068Z,2.47
2018-09-30T11:43:52.451Z,2.70
2018-09-30T11:46:20.797Z,2.27
2018-09-30T11:48:49.232Z,2.65
2018-09-30T11:51:17.557Z,2.92
2018-09-30T11:53:46.018Z,2.47
2018-09-30T11:56:14.368Z,2.37
2018-09-30T11:58:43.007Z,2.98
2018-09-30T12:01:12.319Z,2.60
2018-09-30T12:03:40.644Z,2.75
2018-09-30T12:06:08.979Z,2.55
2018-09-30T12:08:37.775Z,2.50
2018-09-30T12:11:06.395Z,2.70
2018-09-30T12:13:34.744Z,2.52
2018-09-30T12:16:03.193Z,3.10
2018-09-30T12:18:31.736Z,2.80
2018-09-30T12:21:00.436Z,2.83
2018-09-30T12:23:28.925Z,2.60
2018-09-30T12:25:57.378Z,2.55
2018-09-30T12:28:25.843Z,2.72
2018-09-30T12:30:54.316Z,2.90
2018-09-30T12:33:22.808Z,2.75
2018-09-30T12:35:51.493Z,2.45
2018-09-30T12:38:19.981Z,2.27
2018-09-30T12:40:51.342Z,2.40
2018-09-30T12:43:19.976Z,2.93
2018-09-30T12:45:48.636Z,2.87
2018-09-30T12:48:17.014Z,2.30
2018-09-30T12:50:45.509Z,2.33
2018-09-30T12:53:14.013Z,2.63
2018-09-30T12:55:42.462Z,2.73
2018-09-30T12:58:10.919Z,2.60
2018-09-30T13:00:39.255Z,2.80
2018-09-30T13:03:07.696Z,2.23
2018-09-30T13:05:36.302Z,2.70
2018-09-30T13:08:04.869Z,2.57
2018-09-30T13:10:33.403Z,2.67
2018-09-30T13:13:01.890Z,2.27
2018-09-30T13:15:30.465Z,2.63
2018-09-30T13:17:59.255Z,2.20
2018-09-30T13:20:27.806Z,2.43
2018-09-30T13:22:56.184Z,2.20
2018-09-30T13:25:24.727Z,2.40
2018-09-30T13:27:53.097Z,2.17
2018-09-30T13:30:21.464Z,2.33
2018-09-30T13:32:49.896Z,2.67
2018-09-30T13:35:18.243Z,2.43
2018-09-30T13:37:46.694Z,2.80
2018-09-30T13:40:15.194Z,2.43
2018-09-30T13:42:43.646Z,3.10
2018-09-30T13:45:12.081Z,2.23
2018-09-30T13:47:40.529Z,2.73
2018-09-30T13:50:09.023Z,2.40
2018-09-30T13:52:37.465Z,2.23
2018-09-30T13:55:05.945Z,2.13
2018-09-30T13:57:34.330Z,1.73
2018-09-30T14:00:02.841Z,2.30
2018-09-30T14:02:31.367Z,2.27
2018-09-30T14:05:00.304Z,2.43
2018-09-30T14:07:30.294Z,2.50
2018-09-30T14:09:58.953Z,2.60
2018-09-30T14:12:28.162Z,2.00
2018-09-30T14:14:57.755Z,2.17
2018-09-30T14:17:27.033Z,2.57
2018-09-30T14:19:55.563Z,2.40
2018-09-30T14:22:24.594Z,2.22
2018-09-30T14:24:52.992Z,2.00
2018-09-30T14:27:21.522Z,2.30
2018-09-30T14:29:49.788Z,2.52
2018-09-30T14:32:18.284Z,2.47
2018-09-30T14:34:46.825Z,2.02
2018-09-30T14:37:15.289Z,2.52
2018-09-30T14:39:43.831Z,2.42
2018-09-30T14:42:12.386Z,2.27
2018-09-30T14:44:40.743Z,2.30
2018-09-30T14:47:09.204Z,2.63
2018-09-30T14:49:37.567Z,2.10
2018-09-30T14:52:05.976Z,1.87
2018-09-30T14:54:34.699Z,2.33
2018-09-30T14:57:03.248Z,2.52
2018-09-30T14:59:32.284Z,2.30
2018-09-30T15:02:00.656Z,2.65
2018-09-30T15:04:29.066Z,2.30
2018-09-30T15:06:58.209Z,2.73
2018-09-30T15:09:26.767Z,2.67
2018-09-30T15:11:55.316Z,1.83
2018-09-30T15:14:23.692Z,2.20
2018-09-30T15:16:52.081Z,1.80
2018-09-30T15:19:20.536Z,2.53
2018-09-30T15:21:48.971Z,2.53
2018-09-30T15:24:17.327Z,2.00
2018-09-30T15:26:45.742Z,2.40
2018-09-30T15:29:14.113Z,2.00
2018-09-30T15:31:42.502Z,1.97
2018-09-30T15:34:10.968Z,1.83
2018-09-30T15:36:39.352Z,2.53
2018-09-30T15:39:09.649Z,2.00
2018-09-30T15:41:38.193Z,1.93
2018-09-30T15:44:06.817Z,2.43
2018-09-30T15:46:35.137Z,2.20
2018-09-30T15:49:03.517Z,2.23
2018-09-30T15:51:32.072Z,2.30
2018-09-30T15:54:00.468Z,2.07
2018-09-30T15:56:29.418Z,1.87
2018-09-30T15:58:58.100Z,2.30
2018-09-30T16:01:26.647Z,1.60
2018-09-30T16:03:55.307Z,2.13
2018-09-30T16:06:23.970Z,2.00
2018-09-30T16:08:52.423Z,1.87
2018-09-30T16:11:20.963Z,2.17
2018-09-30T16:13:49.392Z,2.20
2018-09-30T16:16:17.788Z,2.13
2018-09-30T16:18:46.333Z,1.90
2018-09-30T16:21:14.811Z,1.90
2018-09-30T16:23:43.266Z,1.90
2018-09-30T16:26:11.763Z,2.00
2018-09-30T16:28:40.273Z,1.80
2018-09-30T16:31:08.922Z,2.00
2018-09-30T16:33:37.275Z,2.03
2018-09-30T16:36:05.669Z,2.07
2018-09-30T16:38:34.010Z,2.30
2018-09-30T16:41:02.733Z,1.87
2018-09-30T16:43:31.212Z,2.03
2018-09-30T16:45:59.610Z,1.70
2018-09-30T16:48:27.935Z,2.33
2018-09-30T16:50:56.317Z,2.30
2018-09-30T16:53:24.697Z,2.37
2018-09-30T16:55:53.095Z,2.27
2018-09-30T16:58:21.535Z,2.00
2018-09-30T17:00:50.028Z,2.37
2018-09-30T17:03:18.517Z,1.93
2018-09-30T17:05:46.806Z,2.07
2018-09-30T17:08:15.310Z,1.90
2018-09-30T17:10:43.718Z,2.33
2018-09-30T17:13:12.287Z,2.23
2018-09-30T17:15:40.663Z,1.80
2018-09-30T17:18:09.156Z,2.17
2018-09-30T17:20:37.629Z,2.50
2018-09-30T17:23:06.165Z,2.23
2018-09-30T17:25:34.761Z,4.00
2018-09-30T17:28:03.159Z,2.90
2018-09-30T17:30:31.542Z,3.17
2018-09-30T17:33:00.200Z,3.00
2018-09-30T17:35:28.595Z,2.77
2018-09-30T17:37:57.208Z,3.03
2018-09-30T17:40:25.586Z,3.47
2018-09-30T17:42:54.100Z,3.83
2018-09-30T17:45:22.732Z,3.37
2018-09-30T17:47:51.612Z,4.10
2018-09-30T17:50:19.999Z,3.77
2018-09-30T17:52:48.394Z,3.27
2018-09-30T17:55:16.865Z,3.23
2018-09-30T17:57:45.425Z,3.30
2018-09-30T18:00:14.323Z,3.20
2018-09-30T18:02:42.843Z,3.60
2018-09-30T18:05:11.321Z,3.60
2018-09-30T18:07:39.852Z,3.33
2018-09-30T18:10:08.353Z,3.63
2018-09-30T18:12:36.876Z,3.97
2018-09-30T18:15:06.507Z,3.50
2018-09-30T18:17:34.914Z,3.53
2018-09-30T18:20:03.626Z,3.93
2018-09-30T18:22:32.345Z,3.70
2018-09-30T18:25:01.400Z,3.30
2018-09-30T18:27:30.180Z,3.20
2018-09-30T18:29:58.882Z,3.60
2018-09-30T18:32:27.270Z,3.67
2018-09-30T18:34:55.653Z,3.77
2018-09-30T18:37:24.080Z,3.53
2018-09-30T18:39:52.732Z,3.53
2018-09-30T18:42:21.133Z,3.50
2018-09-30T18:44:49.634Z,3.37
2018-09-30T18:47:18.114Z,3.70
2018-09-30T18:49:46.560Z,4.13
2018-09-30T18:52:14.921Z,3.50
2018-09-30T18:54:43.317Z,3.63
2018-09-30T18:57:11.790Z,3.90
2018-09-30T18:59:40.203Z,3.40
2018-09-30T19:02:08.540Z,3.67
2018-09-30T19:04:37.235Z,3.93
2018-09-30T19:07:05.759Z,3.27
2018-09-30T19:09:34.294Z,3.73
2018-09-30T19:12:02.947Z,3.43
2018-09-30T19:14:31.567Z,3.63
2018-09-30T19:17:00.263Z,2.83
2018-09-30T19:19:28.600Z,3.50
2018-09-30T19:21:56.925Z,3.77
2018-09-30T19:24:25.273Z,3.77
2018-09-30T19:26:53.629Z,3.77
2018-09-30T19:29:21.972Z,3.47
2018-09-30T19:31:50.756Z,3.70
2018-09-30T19:34:19.140Z,3.10
2018-09-30T19:36:47.684Z,3.37
2018-09-30T19:39:16.147Z,3.00
2018-09-30T19:41:44.559Z,2.83
2018-09-30T19:44:12.995Z,3.27
2018-09-30T19:46:41.394Z,3.10
2018-09-30T19:49:09.955Z,3.80
2018-09-30T19:51:38.327Z,3.80
2018-09-30T19:54:06.687Z,3.07
2018-09-30T19:56:35.469Z,3.30
2018-09-30T19:59:04.208Z,3.57
2018-09-30T20:01:32.880Z,3.30
2018-09-30T20:04:01.225Z,2.93
2018-09-30T20:06:29.707Z,3.07
2018-09-30T20:08:58.236Z,3.60
2018-09-30T20:11:26.691Z,3.10
2018-09-30T20:13:55.537Z,3.20
2018-09-30T20:16:23.991Z,3.40
2018-09-30T20:18:52.467Z,3.37
2018-09-30T20:21:20.825Z,3.40
2018-09-30T20:23:49.228Z,3.23
2018-09-30T20:26:17.631Z,3.27
2018-09-30T20:28:46.121Z,3.20
2018-09-30T20:31:14.623Z,3.17
2018-09-30T20:33:43.003Z,3.13
2018-09-30T20:36:11.345Z,3.43
2018-09-30T20:38:39.762Z,3.43
2018-09-30T20:41:08.135Z,3.23
2018-09-30T20:43:36.466Z,2.90
2018-09-30T20:46:04.845Z,2.93
2018-09-30T20:48:33.288Z,3.17
2018-09-30T20:51:01.904Z,3.20
2018-09-30T20:53:30.444Z,3.20
2018-09-30T20:55:59.119Z,3.03
2018-09-30T20:58:27.475Z,2.83
2018-09-30T21:00:55.977Z,3.27
2018-09-30T21:03:24.270Z,3.13
2018-09-30T21:06:36.026Z,3.13
2018-09-30T21:09:07.543Z,2.57
2018-09-30T21:11:36.009Z,3.00
2018-09-30T21:14:04.793Z,3.00
2018-09-30T21:16:33.455Z,2.87
2018-09-30T21:19:01.864Z,2.93
2018-09-30T21:21:30.330Z,2.80
2018-09-30T21:23:58.907Z,3.17
2018-09-30T21:26:27.273Z,3.10
2018-09-30T21:28:55.619Z,2.97
2018-09-30T21:31:23.989Z,3.00
2018-09-30T21:33:52.500Z,3.13
2018-09-30T21:36:21.007Z,2.70
2018-09-30T21:38:49.391Z,2.60
2018-09-30T21:41:17.839Z,2.70
2018-09-30T21:43:46.205Z,2.40
2018-09-30T21:46:14.774Z,2.70
2018-09-30T21:48:43.235Z,2.90
2018-09-30T21:51:11.594Z,2.53
2018-09-30T21:53:39.937Z,2.57
2018-09-30T21:56:08.303Z,2.53
2018-09-30T21:58:36.795Z,2.67
2018-09-30T22:01:05.782Z,2.70
2018-09-30T22:03:34.147Z,2.33
2018-09-30T22:06:02.588Z,3.00
2018-09-30T22:08:31.016Z,3.40
2018-09-30T22:10:59.656Z,2.80
2018-09-30T22:13:28.140Z,3.20
2018-09-30T22:15:56.508Z,3.03
2018-09-30T22:18:24.943Z,3.53
2018-09-30T22:20:53.310Z,2.87
2018-09-30T22:23:21.638Z,3.10
2018-09-30T22:25:50.167Z,3.17
2018-09-30T22:28:18.468Z,2.97
2018-09-30T22:30:46.845Z,2.57
2018-09-30T22:33:15.192Z,3.00
2018-09-30T22:35:43.571Z,3.10
2018-09-30T22:38:11.895Z,3.27
2018-09-30T22:40:40.316Z,3.20
2018-09-30T22:43:08.708Z,3.03
2018-09-30T22:45:37.063Z,3.20
2018-09-30T22:48:05.336Z,3.60
2018-09-30T22:50:33.737Z,3.00
2018-09-30T22:53:02.416Z,3.20
2018-09-30T22:55:30.748Z,3.13
2018-09-30T22:57:59.104Z,2.97
2018-09-30T23:00:27.504Z,3.00
2018-09-30T23:02:55.947Z,2.83
2018-09-30T23:05:24.361Z,2.70
2018-09-30T23:07:52.729Z,3.07
2018-09-30T23:10:21.121Z,3.23
2018-09-30T23:12:49.409Z,2.83
2018-09-30T23:15:17.991Z,2.53
2018-09-30T23:17:46.402Z,2.70
2018-09-30T23:20:18.073Z,2.93
2018-09-30T23:22:46.866Z,2.97
2018-09-30T23:25:15.241Z,2.90
2018-09-30T23:27:43.856Z,3.30
2018-09-30T23:30:12.678Z,2.93
2018-09-30T23:32:41.094Z,2.77
2018-09-30T23:35:09.923Z,2.87
2018-09-30T23:37:38.370Z,2.60
2018-09-30T23:40:07.056Z,2.97
2018-09-30T23:42:35.847Z,3.00
2018-09-30T23:45:04.896Z,2.67
2018-09-30T23:47:33.344Z,3.13
2018-09-30T23:50:01.854Z,2.60
2018-09-30T23:52:30.196Z,2.67
2018-09-30T23:54:58.548Z,2.50
2018-09-30T23:57:26.921Z,2.67
2018-09-30T23:59:55.302Z,3.27
